Chatham, Massachusetts
Current Conditions -  °F | °C
As of 2:52 AM on Sunday 26 Oct 2014 (Local Time) from KCQX Reporting Station
Clear Clear  
Wind Chill: 59°   Ceiling: Unl
Heat Index: 59°   Visibility: 10mi
Dew Point: 53°   Wind: 7mph
Humidity: 81%   Direction: 270°W
Pressure: 29.48"   Gusts: 17mph
Location:  41.68°N, 69.96°W
Report Text: KCQX 260652Z AUTO 27006G15KT 10SM CLR 15/12 A2948 RMK AO2 SLP983 T01500117
Loading
Personal Weather Stations






























Interactive Weather Map
Tropical Storm Tracking
New forecast layout! Learn more

10-Day Weather Forecast

Advertisements
Track Severe Weather on mobile